sensor_id;sensor_type;location;lat;lon;timestamp;temperature;humidity
11246;DHT22;59870;50.106;8.580;2023-07-13T00:02:08;24.70;50.60
11246;DHT22;59870;50.106;8.580;2023-07-13T00:04:36;24.70;50.30
11246;DHT22;59870;50.106;8.580;2023-07-13T00:07:04;24.70;51.10
11246;DHT22;59870;50.106;8.580;2023-07-13T00:09:31;24.70;51.30
11246;DHT22;59870;50.106;8.580;2023-07-13T00:11:59;24.70;50.80
11246;DHT22;59870;50.106;8.580;2023-07-13T00:14:27;24.70;50.50
11246;DHT22;59870;50.106;8.580;2023-07-13T00:16:55;24.70;50.20
11246;DHT22;59870;50.106;8.580;2023-07-13T00:19:23;24.70;50.30
11246;DHT22;59870;50.106;8.580;2023-07-13T00:21:51;24.80;50.00
11246;DHT22;59870;50.106;8.580;2023-07-13T00:24:23;24.70;50.10
11246;DHT22;59870;50.106;8.580;2023-07-13T00:26:52;24.70;48.90
11246;DHT22;59870;50.106;8.580;2023-07-13T00:29:19;24.90;49.40
11246;DHT22;59870;50.106;8.580;2023-07-13T00:31:48;24.70;48.80
11246;DHT22;59870;50.106;8.580;2023-07-13T00:34:16;24.70;49.70
11246;DHT22;59870;50.106;8.580;2023-07-13T00:36:44;24.90;48.90
11246;DHT22;59870;50.106;8.580;2023-07-13T00:39:12;24.70;49.00
11246;DHT22;59870;50.106;8.580;2023-07-13T00:41:40;24.90;49.10
11246;DHT22;59870;50.106;8.580;2023-07-13T00:44:14;24.60;48.50
11246;DHT22;59870;50.106;8.580;2023-07-13T00:46:42;24.90;48.80
11246;DHT22;59870;50.106;8.580;2023-07-13T00:49:13;24.80;49.40
11246;DHT22;59870;50.106;8.580;2023-07-13T00:51:49;24.60;49.20
11246;DHT22;59870;50.106;8.580;2023-07-13T00:54:24;24.50;49.00
11246;DHT22;59870;50.106;8.580;2023-07-13T00:56:55;24.50;48.40
11246;DHT22;59870;50.106;8.580;2023-07-13T00:59:25;24.50;49.00
11246;DHT22;59870;50.106;8.580;2023-07-13T01:01:52;24.40;48.70
11246;DHT22;59870;50.106;8.580;2023-07-13T01:04:24;24.50;49.30
11246;DHT22;59870;50.106;8.580;2023-07-13T01:06:52;24.40;48.90
11246;DHT22;59870;50.106;8.580;2023-07-13T01:09:20;24.40;49.10
11246;DHT22;59870;50.106;8.580;2023-07-13T01:11:49;24.30;49.20
11246;DHT22;59870;50.106;8.580;2023-07-13T01:14:16;24.30;49.40
11246;DHT22;59870;50.106;8.580;2023-07-13T01:16:46;24.30;49.70
11246;DHT22;59870;50.106;8.580;2023-07-13T01:19:40;24.30;49.90
11246;DHT22;59870;50.106;8.580;2023-07-13T01:22:15;24.30;49.70
11246;DHT22;59870;50.106;8.580;2023-07-13T01:24:46;24.20;49.40
11246;DHT22;59870;50.106;8.580;2023-07-13T01:27:20;24.30;49.80
11246;DHT22;59870;50.106;8.580;2023-07-13T01:29:48;24.20;49.80
11246;DHT22;59870;50.106;8.580;2023-07-13T01:32:18;24.10;50.30
11246;DHT22;59870;50.106;8.580;2023-07-13T01:34:54;24.10;50.30
11246;DHT22;59870;50.106;8.580;2023-07-13T01:37:23;24.10;49.80
11246;DHT22;59870;50.106;8.580;2023-07-13T01:39:52;24.10;50.40
11246;DHT22;59870;50.106;8.580;2023-07-13T01:42:19;24.10;50.70
11246;DHT22;59870;50.106;8.580;2023-07-13T01:44:48;24.00;49.80
11246;DHT22;59870;50.106;8.580;2023-07-13T01:47:15;24.00;49.90
11246;DHT22;59870;50.106;8.580;2023-07-13T01:49:43;24.00;50.30
11246;DHT22;59870;50.106;8.580;2023-07-13T01:52:13;23.90;51.00
11246;DHT22;59870;50.106;8.580;2023-07-13T01:54:41;23.90;51.00
11246;DHT22;59870;50.106;8.580;2023-07-13T01:57:09;23.90;51.30
11246;DHT22;59870;50.106;8.580;2023-07-13T01:59:36;24.10;51.70
11246;DHT22;59870;50.106;8.580;2023-07-13T02:02:06;23.80;51.20
11246;DHT22;59870;50.106;8.580;2023-07-13T02:04:34;23.80;50.60
11246;DHT22;59870;50.106;8.580;2023-07-13T02:07:01;23.70;50.50
11246;DHT22;59870;50.106;8.580;2023-07-13T02:09:29;23.70;51.80
11246;DHT22;59870;50.106;8.580;2023-07-13T02:11:57;23.70;52.00
11246;DHT22;59870;50.106;8.580;2023-07-13T02:14:30;23.70;51.40
11246;DHT22;59870;50.106;8.580;2023-07-13T02:16:58;23.60;51.30
11246;DHT22;59870;50.106;8.580;2023-07-13T02:19:25;23.60;51.30
11246;DHT22;59870;50.106;8.580;2023-07-13T02:21:53;23.60;51.60
11246;DHT22;59870;50.106;8.580;2023-07-13T02:24:20;23.50;51.20
11246;DHT22;59870;50.106;8.580;2023-07-13T02:26:48;23.60;51.00
11246;DHT22;59870;50.106;8.580;2023-07-13T02:29:15;23.50;51.80
11246;DHT22;59870;50.106;8.580;2023-07-13T02:31:45;23.50;52.00
11246;DHT22;59870;50.106;8.580;2023-07-13T02:34:12;23.50;51.80
11246;DHT22;59870;50.106;8.580;2023-07-13T02:36:40;23.40;52.40
11246;DHT22;59870;50.106;8.580;2023-07-13T02:39:09;23.40;51.60
11246;DHT22;59870;50.106;8.580;2023-07-13T02:41:38;23.30;51.90
11246;DHT22;59870;50.106;8.580;2023-07-13T02:44:06;23.30;51.60
11246;DHT22;59870;50.106;8.580;2023-07-13T02:46:36;23.30;51.80
11246;DHT22;59870;50.106;8.580;2023-07-13T02:49:04;23.20;51.90
11246;DHT22;59870;50.106;8.580;2023-07-13T02:51:32;23.20;52.10
11246;DHT22;59870;50.106;8.580;2023-07-13T02:54:03;23.20;52.20
11246;DHT22;59870;50.106;8.580;2023-07-13T02:56:32;23.20;52.00
11246;DHT22;59870;50.106;8.580;2023-07-13T02:58:59;23.10;51.10
11246;DHT22;59870;50.106;8.580;2023-07-13T03:01:27;23.20;51.50
11246;DHT22;59870;50.106;8.580;2023-07-13T03:03:54;23.10;51.00
11246;DHT22;59870;50.106;8.580;2023-07-13T03:06:23;23.00;50.70
11246;DHT22;59870;50.106;8.580;2023-07-13T03:08:53;23.00;50.80
11246;DHT22;59870;50.106;8.580;2023-07-13T03:11:22;23.00;51.90
11246;DHT22;59870;50.106;8.580;2023-07-13T03:13:57;22.90;51.20
11246;DHT22;59870;50.106;8.580;2023-07-13T03:16:26;22.90;51.20
11246;DHT22;59870;50.106;8.580;2023-07-13T03:18:54;22.90;51.40
11246;DHT22;59870;50.106;8.580;2023-07-13T03:21:22;22.90;52.00
11246;DHT22;59870;50.106;8.580;2023-07-13T03:23:50;22.90;52.40
11246;DHT22;59870;50.106;8.580;2023-07-13T03:26:19;22.90;52.20
11246;DHT22;59870;50.106;8.580;2023-07-13T03:28:48;22.80;52.40
11246;DHT22;59870;50.106;8.580;2023-07-13T03:31:22;22.80;52.40
11246;DHT22;59870;50.106;8.580;2023-07-13T03:33:50;22.80;53.10
11246;DHT22;59870;50.106;8.580;2023-07-13T03:36:21;22.80;52.90
11246;DHT22;59870;50.106;8.580;2023-07-13T03:38:54;22.70;52.40
11246;DHT22;59870;50.106;8.580;2023-07-13T03:41:25;22.70;53.30
11246;DHT22;59870;50.106;8.580;2023-07-13T03:43:54;22.70;53.10
11246;DHT22;59870;50.106;8.580;2023-07-13T03:46:24;22.70;53.00
11246;DHT22;59870;50.106;8.580;2023-07-13T03:48:52;22.70;53.10
11246;DHT22;59870;50.106;8.580;2023-07-13T03:51:19;22.60;53.60
11246;DHT22;59870;50.106;8.580;2023-07-13T03:53:47;22.90;54.10
11246;DHT22;59870;50.106;8.580;2023-07-13T03:56:18;22.50;53.60
11246;DHT22;59870;50.106;8.580;2023-07-13T03:58:48;22.50;53.30
11246;DHT22;59870;50.106;8.580;2023-07-13T04:01:22;22.50;53.70
11246;DHT22;59870;50.106;8.580;2023-07-13T04:03:50;22.50;53.90
11246;DHT22;59870;50.106;8.580;2023-07-13T04:06:21;22.50;53.40
11246;DHT22;59870;50.106;8.580;2023-07-13T04:08:50;22.50;54.60
11246;DHT22;59870;50.106;8.580;2023-07-13T04:11:19;22.50;54.80
11246;DHT22;59870;50.106;8.580;2023-07-13T04:13:47;22.50;54.20
11246;DHT22;59870;50.106;8.580;2023-07-13T04:16:16;22.40;55.00
11246;DHT22;59870;50.106;8.580;2023-07-13T04:18:46;22.40;54.50
11246;DHT22;59870;50.106;8.580;2023-07-13T04:21:14;22.50;54.50
11246;DHT22;59870;50.106;8.580;2023-07-13T04:23:42;22.40;55.10
11246;DHT22;59870;50.106;8.580;2023-07-13T04:26:10;22.40;55.60
11246;DHT22;59870;50.106;8.580;2023-07-13T04:28:38;22.40;56.80
11246;DHT22;59870;50.106;8.580;2023-07-13T04:31:06;22.40;55.50
11246;DHT22;59870;50.106;8.580;2023-07-13T04:33:33;22.70;56.30
11246;DHT22;59870;50.106;8.580;2023-07-13T04:36:01;22.40;56.20
11246;DHT22;59870;50.106;8.580;2023-07-13T04:38:30;22.40;55.80
11246;DHT22;59870;50.106;8.580;2023-07-13T04:41:02;22.30;55.40
11246;DHT22;59870;50.106;8.580;2023-07-13T04:43:31;22.30;55.40
11246;DHT22;59870;50.106;8.580;2023-07-13T04:46:05;22.40;55.40
11246;DHT22;59870;50.106;8.580;2023-07-13T04:48:33;22.40;55.50
11246;DHT22;59870;50.106;8.580;2023-07-13T04:51:02;22.40;56.00
11246;DHT22;59870;50.106;8.580;2023-07-13T04:53:30;22.50;56.40
11246;DHT22;59870;50.106;8.580;2023-07-13T04:55:58;22.50;56.00
11246;DHT22;59870;50.106;8.580;2023-07-13T04:58:25;22.50;57.30
11246;DHT22;59870;50.106;8.580;2023-07-13T05:00:59;22.50;57.40
11246;DHT22;59870;50.106;8.580;2023-07-13T05:03:26;22.60;56.80
11246;DHT22;59870;50.106;8.580;2023-07-13T05:05:59;22.70;58.80
11246;DHT22;59870;50.106;8.580;2023-07-13T05:08:27;22.70;57.20
11246;DHT22;59870;50.106;8.580;2023-07-13T05:10:54;22.80;56.70
11246;DHT22;59870;50.106;8.580;2023-07-13T05:13:22;23.10;56.60
11246;DHT22;59870;50.106;8.580;2023-07-13T05:16:00;23.00;56.40
11246;DHT22;59870;50.106;8.580;2023-07-13T05:18:29;23.10;56.00
11246;DHT22;59870;50.106;8.580;2023-07-13T05:21:08;23.30;54.60
11246;DHT22;59870;50.106;8.580;2023-07-13T05:23:37;23.40;53.70
11246;DHT22;59870;50.106;8.580;2023-07-13T05:26:05;23.50;54.90
11246;DHT22;59870;50.106;8.580;2023-07-13T05:28:36;23.90;54.90
11246;DHT22;59870;50.106;8.580;2023-07-13T05:31:05;23.70;54.80
11246;DHT22;59870;50.106;8.580;2023-07-13T05:33:33;23.80;54.10
11246;DHT22;59870;50.106;8.580;2023-07-13T05:36:01;23.90;53.90
11246;DHT22;59870;50.106;8.580;2023-07-13T05:38:29;23.90;53.80
11246;DHT22;59870;50.106;8.580;2023-07-13T05:40:57;24.00;53.30
11246;DHT22;59870;50.106;8.580;2023-07-13T05:43:25;24.10;52.80
11246;DHT22;59870;50.106;8.580;2023-07-13T05:45:54;24.20;53.10
11246;DHT22;59870;50.106;8.580;2023-07-13T05:48:22;24.60;53.50
11246;DHT22;59870;50.106;8.580;2023-07-13T05:50:49;24.40;53.40
11246;DHT22;59870;50.106;8.580;2023-07-13T05:53:17;24.60;52.90
11246;DHT22;59870;50.106;8.580;2023-07-13T05:55:46;24.70;52.60
11246;DHT22;59870;50.106;8.580;2023-07-13T05:58:15;24.80;52.90
11246;DHT22;59870;50.106;8.580;2023-07-13T06:00:43;24.90;51.70
11246;DHT22;59870;50.106;8.580;2023-07-13T06:03:10;25.10;51.80
11246;DHT22;59870;50.106;8.580;2023-07-13T06:05:38;25.20;51.30
11246;DHT22;59870;50.106;8.580;2023-07-13T06:08:07;25.60;50.90
11246;DHT22;59870;50.106;8.580;2023-07-13T06:10:35;26.20;51.20
11246;DHT22;59870;50.106;8.580;2023-07-13T06:13:03;26.50;50.20
11246;DHT22;59870;50.106;8.580;2023-07-13T06:15:31;27.00;49.50
11246;DHT22;59870;50.106;8.580;2023-07-13T06:17:59;27.00;48.50
11246;DHT22;59870;50.106;8.580;2023-07-13T06:20:26;27.40;47.80
11246;DHT22;59870;50.106;8.580;2023-07-13T06:22:54;27.70;46.40
11246;DHT22;59870;50.106;8.580;2023-07-13T06:25:22;28.10;46.20
11246;DHT22;59870;50.106;8.580;2023-07-13T06:27:50;28.50;45.40
11246;DHT22;59870;50.106;8.580;2023-07-13T06:30:17;28.80;44.00
11246;DHT22;59870;50.106;8.580;2023-07-13T06:32:45;29.20;44.00
11246;DHT22;59870;50.106;8.580;2023-07-13T06:35:12;29.70;42.30
11246;DHT22;59870;50.106;8.580;2023-07-13T06:37:41;30.00;41.20
11246;DHT22;59870;50.106;8.580;2023-07-13T06:40:09;30.60;40.80
11246;DHT22;59870;50.106;8.580;2023-07-13T06:42:36;30.90;40.50
11246;DHT22;59870;50.106;8.580;2023-07-13T06:45:05;31.20;39.20
11246;DHT22;59870;50.106;8.580;2023-07-13T06:47:33;31.60;37.90
11246;DHT22;59870;50.106;8.580;2023-07-13T06:50:01;31.90;37.00
11246;DHT22;59870;50.106;8.580;2023-07-13T06:52:28;32.20;36.30
11246;DHT22;59870;50.106;8.580;2023-07-13T06:54:56;32.70;35.80
11246;DHT22;59870;50.106;8.580;2023-07-13T06:57:23;32.80;35.20
11246;DHT22;59870;50.106;8.580;2023-07-13T06:59:51;33.40;34.50
11246;DHT22;59870;50.106;8.580;2023-07-13T07:02:18;33.40;34.00
11246;DHT22;59870;50.106;8.580;2023-07-13T07:04:46;33.60;33.40
11246;DHT22;59870;50.106;8.580;2023-07-13T07:07:13;34.00;34.00
11246;DHT22;59870;50.106;8.580;2023-07-13T07:09:40;34.30;33.40
11246;DHT22;59870;50.106;8.580;2023-07-13T07:12:09;34.50;32.30
11246;DHT22;59870;50.106;8.580;2023-07-13T07:14:39;34.80;32.50
11246;DHT22;59870;50.106;8.580;2023-07-13T07:17:07;35.10;32.30
11246;DHT22;59870;50.106;8.580;2023-07-13T07:19:35;35.30;31.40
11246;DHT22;59870;50.106;8.580;2023-07-13T07:22:02;35.60;31.70
11246;DHT22;59870;50.106;8.580;2023-07-13T07:24:30;35.90;31.30
11246;DHT22;59870;50.106;8.580;2023-07-13T07:26:58;36.20;30.60
11246;DHT22;59870;50.106;8.580;2023-07-13T07:29:28;36.40;30.20
11246;DHT22;59870;50.106;8.580;2023-07-13T07:31:59;36.70;29.50
11246;DHT22;59870;50.106;8.580;2023-07-13T07:34:44;36.70;29.10
11246;DHT22;59870;50.106;8.580;2023-07-13T07:37:13;36.80;28.80
11246;DHT22;59870;50.106;8.580;2023-07-13T07:39:44;37.00;28.80
11246;DHT22;59870;50.106;8.580;2023-07-13T07:42:32;37.10;28.60
11246;DHT22;59870;50.106;8.580;2023-07-13T07:44:59;37.30;28.10
11246;DHT22;59870;50.106;8.580;2023-07-13T07:47:29;37.50;27.70
11246;DHT22;59870;50.106;8.580;2023-07-13T07:49:57;38.00;28.10
11246;DHT22;59870;50.106;8.580;2023-07-13T07:52:24;38.10;28.20
11246;DHT22;59870;50.106;8.580;2023-07-13T07:54:52;38.20;27.00
11246;DHT22;59870;50.106;8.580;2023-07-13T07:57:22;38.60;26.70
11246;DHT22;59870;50.106;8.580;2023-07-13T07:59:52;38.70;26.40
11246;DHT22;59870;50.106;8.580;2023-07-13T08:02:27;38.90;26.30
11246;DHT22;59870;50.106;8.580;2023-07-13T08:04:57;39.10;26.90
11246;DHT22;59870;50.106;8.580;2023-07-13T08:07:28;39.40;26.80
11246;DHT22;59870;50.106;8.580;2023-07-13T08:09:57;39.60;26.50
11246;DHT22;59870;50.106;8.580;2023-07-13T08:12:25;39.60;25.20
11246;DHT22;59870;50.106;8.580;2023-07-13T08:14:55;39.50;25.10
11246;DHT22;59870;50.106;8.580;2023-07-13T08:17:25;39.40;25.30
11246;DHT22;59870;50.106;8.580;2023-07-13T08:19:53;39.40;25.30
11246;DHT22;59870;50.106;8.580;2023-07-13T08:22:21;39.50;25.30
11246;DHT22;59870;50.106;8.580;2023-07-13T08:24:48;39.50;24.90
11246;DHT22;59870;50.106;8.580;2023-07-13T08:27:24;39.50;25.30
11246;DHT22;59870;50.106;8.580;2023-07-13T08:29:52;39.50;24.60
11246;DHT22;59870;50.106;8.580;2023-07-13T08:32:21;39.60;24.90
11246;DHT22;59870;50.106;8.580;2023-07-13T08:34:49;39.60;24.90
11246;DHT22;59870;50.106;8.580;2023-07-13T08:37:17;39.50;25.10
11246;DHT22;59870;50.106;8.580;2023-07-13T08:40:11;39.60;24.50
11246;DHT22;59870;50.106;8.580;2023-07-13T08:42:44;39.50;25.60
11246;DHT22;59870;50.106;8.580;2023-07-13T08:48:11;39.70;24.80
11246;DHT22;59870;50.106;8.580;2023-07-13T08:50:49;39.90;24.30
11246;DHT22;59870;50.106;8.580;2023-07-13T08:53:36;39.90;24.40
11246;DHT22;59870;50.106;8.580;2023-07-13T08:56:11;40.20;24.80
11246;DHT22;59870;50.106;8.580;2023-07-13T08:58:44;40.10;24.30
11246;DHT22;59870;50.106;8.580;2023-07-13T09:01:31;40.30;24.30
11246;DHT22;59870;50.106;8.580;2023-07-13T09:04:12;40.30;24.50
11246;DHT22;59870;50.106;8.580;2023-07-13T09:09:49;40.70;24.30
11246;DHT22;59870;50.106;8.580;2023-07-13T09:15:04;40.80;23.60
11246;DHT22;59870;50.106;8.580;2023-07-13T09:17:44;40.90;23.30
11246;DHT22;59870;50.106;8.580;2023-07-13T09:20:26;41.00;23.20
11246;DHT22;59870;50.106;8.580;2023-07-13T09:22:55;41.10;23.10
11246;DHT22;59870;50.106;8.580;2023-07-13T09:27:53;41.30;22.70
11246;DHT22;59870;50.106;8.580;2023-07-13T09:30:38;41.70;22.60
11246;DHT22;59870;50.106;8.580;2023-07-13T09:33:10;41.50;23.10
11246;DHT22;59870;50.106;8.580;2023-07-13T09:35:37;41.70;22.20
11246;DHT22;59870;50.106;8.580;2023-07-13T09:38:18;41.70;22.60
11246;DHT22;59870;50.106;8.580;2023-07-13T09:41:00;41.60;22.90
11246;DHT22;59870;50.106;8.580;2023-07-13T09:43:31;41.70;22.50
11246;DHT22;59870;50.106;8.580;2023-07-13T09:46:00;41.70;22.30
11246;DHT22;59870;50.106;8.580;2023-07-13T09:48:36;41.50;21.70
11246;DHT22;59870;50.106;8.580;2023-07-13T09:51:13;41.30;22.20
11246;DHT22;59870;50.106;8.580;2023-07-13T09:53:43;41.10;22.20
11246;DHT22;59870;50.106;8.580;2023-07-13T09:56:22;40.80;21.80
11246;DHT22;59870;50.106;8.580;2023-07-13T09:58:50;40.50;23.20
11246;DHT22;59870;50.106;8.580;2023-07-13T10:01:32;40.20;23.30
11246;DHT22;59870;50.106;8.580;2023-07-13T10:04:00;39.90;23.40
11246;DHT22;59870;50.106;8.580;2023-07-13T10:06:27;39.90;23.30
11246;DHT22;59870;50.106;8.580;2023-07-13T10:08:56;39.40;23.80
11246;DHT22;59870;50.106;8.580;2023-07-13T10:11:27;39.30;24.30
11246;DHT22;59870;50.106;8.580;2023-07-13T10:13:59;38.80;24.40
11246;DHT22;59870;50.106;8.580;2023-07-13T10:16:30;38.70;24.40
11246;DHT22;59870;50.106;8.580;2023-07-13T10:19:24;38.30;24.40
11246;DHT22;59870;50.106;8.580;2023-07-13T10:24:25;37.70;25.50
11246;DHT22;59870;50.106;8.580;2023-07-13T10:27:15;37.50;26.30
11246;DHT22;59870;50.106;8.580;2023-07-13T10:30:11;37.20;25.90
11246;DHT22;59870;50.106;8.580;2023-07-13T10:32:43;36.90;25.80
11246;DHT22;59870;50.106;8.580;2023-07-13T10:35:14;36.70;25.90
11246;DHT22;59870;50.106;8.580;2023-07-13T10:37:48;36.60;26.40
11246;DHT22;59870;50.106;8.580;2023-07-13T10:40:29;36.40;26.70
11246;DHT22;59870;50.106;8.580;2023-07-13T10:43:01;36.20;26.60
11246;DHT22;59870;50.106;8.580;2023-07-13T10:45:34;36.10;27.10
11246;DHT22;59870;50.106;8.580;2023-07-13T10:48:03;36.00;27.10
11246;DHT22;59870;50.106;8.580;2023-07-13T10:50:31;35.70;26.70
11246;DHT22;59870;50.106;8.580;2023-07-13T10:53:18;35.70;26.90
11246;DHT22;59870;50.106;8.580;2023-07-13T10:58:32;35.40;27.20
11246;DHT22;59870;50.106;8.580;2023-07-13T11:01:09;35.40;26.70
11246;DHT22;59870;50.106;8.580;2023-07-13T11:03:48;35.10;26.80
11246;DHT22;59870;50.106;8.580;2023-07-13T11:06:37;34.90;26.40
11246;DHT22;59870;50.106;8.580;2023-07-13T11:12:02;34.50;26.80
11246;DHT22;59870;50.106;8.580;2023-07-13T11:14:43;34.40;27.40
11246;DHT22;59870;50.106;8.580;2023-07-13T11:22:53;34.10;28.10
11246;DHT22;59870;50.106;8.580;2023-07-13T11:25:35;33.90;28.10
11246;DHT22;59870;50.106;8.580;2023-07-13T11:33:23;33.80;28.20
11246;DHT22;59870;50.106;8.580;2023-07-13T11:38:37;33.50;27.80
11246;DHT22;59870;50.106;8.580;2023-07-13T11:41:35;33.40;28.20
11246;DHT22;59870;50.106;8.580;2023-07-13T11:47:24;33.20;28.40
11246;DHT22;59870;50.106;8.580;2023-07-13T11:49:55;33.20;28.90
11246;DHT22;59870;50.106;8.580;2023-07-13T11:52:33;33.10;29.00
11246;DHT22;59870;50.106;8.580;2023-07-13T11:55:03;33.20;28.90
11246;DHT22;59870;50.106;8.580;2023-07-13T11:57:42;32.90;28.70
11246;DHT22;59870;50.106;8.580;2023-07-13T12:00:17;32.90;28.80
11246;DHT22;59870;50.106;8.580;2023-07-13T12:02:56;32.90;28.60
11246;DHT22;59870;50.106;8.580;2023-07-13T12:05:27;32.80;29.20
11246;DHT22;59870;50.106;8.580;2023-07-13T12:07:59;32.80;29.70
11246;DHT22;59870;50.106;8.580;2023-07-13T12:10:35;32.70;29.90
11246;DHT22;59870;50.106;8.580;2023-07-13T12:13:05;32.70;29.70
11246;DHT22;59870;50.106;8.580;2023-07-13T12:15:45;33.00;29.40
11246;DHT22;59870;50.106;8.580;2023-07-13T12:18:19;32.60;29.60
11246;DHT22;59870;50.106;8.580;2023-07-13T12:20:48;32.60;29.80
11246;DHT22;59870;50.106;8.580;2023-07-13T12:23:31;32.90;30.40
11246;DHT22;59870;50.106;8.580;2023-07-13T12:26:03;32.50;29.80
11246;DHT22;59870;50.106;8.580;2023-07-13T12:28:37;32.50;29.90
11246;DHT22;59870;50.106;8.580;2023-07-13T12:31:08;32.60;30.90
11246;DHT22;59870;50.106;8.580;2023-07-13T12:33:42;32.60;30.20
11246;DHT22;59870;50.106;8.580;2023-07-13T12:36:12;32.40;29.70
11246;DHT22;59870;50.106;8.580;2023-07-13T12:38:40;32.50;30.10
11246;DHT22;59870;50.106;8.580;2023-07-13T12:41:08;32.30;30.40
11246;DHT22;59870;50.106;8.580;2023-07-13T12:43:37;32.30;31.30
11246;DHT22;59870;50.106;8.580;2023-07-13T12:46:19;32.40;29.80
11246;DHT22;59870;50.106;8.580;2023-07-13T12:48:52;32.20;30.20
11246;DHT22;59870;50.106;8.580;2023-07-13T12:51:39;32.10;30.20
11246;DHT22;59870;50.106;8.580;2023-07-13T12:54:16;32.00;29.80
11246;DHT22;59870;50.106;8.580;2023-07-13T12:56:51;32.20;30.20
11246;DHT22;59870;50.106;8.580;2023-07-13T12:59:38;32.00;31.50
11246;DHT22;59870;50.106;8.580;2023-07-13T13:02:34;32.00;31.00
11246;DHT22;59870;50.106;8.580;2023-07-13T13:05:03;32.00;30.70
11246;DHT22;59870;50.106;8.580;2023-07-13T13:07:33;32.00;30.80
11246;DHT22;59870;50.106;8.580;2023-07-13T13:10:11;32.00;30.70
11246;DHT22;59870;50.106;8.580;2023-07-13T13:12:39;32.00;31.00
11246;DHT22;59870;50.106;8.580;2023-07-13T13:15:08;32.20;31.60
11246;DHT22;59870;50.106;8.580;2023-07-13T13:17:35;32.00;31.30
11246;DHT22;59870;50.106;8.580;2023-07-13T13:20:21;32.00;30.60
11246;DHT22;59870;50.106;8.580;2023-07-13T13:22:49;32.30;30.70
11246;DHT22;59870;50.106;8.580;2023-07-13T13:25:16;32.00;30.20
11246;DHT22;59870;50.106;8.580;2023-07-13T13:27:46;32.00;30.60
11246;DHT22;59870;50.106;8.580;2023-07-13T13:30:15;32.20;31.40
11246;DHT22;59870;50.106;8.580;2023-07-13T13:32:46;32.00;31.10
11246;DHT22;59870;50.106;8.580;2023-07-13T13:35:19;32.10;29.90
11246;DHT22;59870;50.106;8.580;2023-07-13T13:37:47;32.30;30.10
11246;DHT22;59870;50.106;8.580;2023-07-13T13:40:21;32.10;30.60
11246;DHT22;59870;50.106;8.580;2023-07-13T13:42:51;32.10;30.80
11246;DHT22;59870;50.106;8.580;2023-07-13T13:45:21;32.10;30.40
11246;DHT22;59870;50.106;8.580;2023-07-13T13:47:49;32.00;31.20
11246;DHT22;59870;50.106;8.580;2023-07-13T13:50:19;32.00;30.50
11246;DHT22;59870;50.106;8.580;2023-07-13T13:52:47;32.10;30.30
11246;DHT22;59870;50.106;8.580;2023-07-13T13:55:20;32.10;30.70
11246;DHT22;59870;50.106;8.580;2023-07-13T13:57:48;32.00;30.90
11246;DHT22;59870;50.106;8.580;2023-07-13T14:00:16;32.00;30.80
11246;DHT22;59870;50.106;8.580;2023-07-13T14:02:47;32.20;31.20
11246;DHT22;59870;50.106;8.580;2023-07-13T14:05:23;32.30;31.70
11246;DHT22;59870;50.106;8.580;2023-07-13T14:07:50;32.20;31.90
11246;DHT22;59870;50.106;8.580;2023-07-13T14:10:19;32.10;31.70
11246;DHT22;59870;50.106;8.580;2023-07-13T14:12:53;32.00;30.90
11246;DHT22;59870;50.106;8.580;2023-07-13T14:15:24;32.20;31.00
11246;DHT22;59870;50.106;8.580;2023-07-13T14:17:53;32.10;30.80
11246;DHT22;59870;50.106;8.580;2023-07-13T14:20:22;32.00;31.10
11246;DHT22;59870;50.106;8.580;2023-07-13T14:22:52;32.00;31.80
11246;DHT22;59870;50.106;8.580;2023-07-13T14:25:20;32.10;31.80
11246;DHT22;59870;50.106;8.580;2023-07-13T14:27:53;32.00;32.20
11246;DHT22;59870;50.106;8.580;2023-07-13T14:30:22;31.90;31.80
11246;DHT22;59870;50.106;8.580;2023-07-13T14:32:50;31.80;31.70
11246;DHT22;59870;50.106;8.580;2023-07-13T14:35:21;31.90;32.00
11246;DHT22;59870;50.106;8.580;2023-07-13T14:37:50;31.90;32.20
11246;DHT22;59870;50.106;8.580;2023-07-13T14:40:25;31.60;31.80
11246;DHT22;59870;50.106;8.580;2023-07-13T14:42:54;31.70;32.10
11246;DHT22;59870;50.106;8.580;2023-07-13T14:45:22;31.50;32.60
11246;DHT22;59870;50.106;8.580;2023-07-13T14:47:52;31.50;32.50
11246;DHT22;59870;50.106;8.580;2023-07-13T14:50:31;31.40;32.70
11246;DHT22;59870;50.106;8.580;2023-07-13T14:53:00;31.40;33.00
11246;DHT22;59870;50.106;8.580;2023-07-13T14:55:27;31.40;33.30
11246;DHT22;59870;50.106;8.580;2023-07-13T14:57:55;31.40;33.20
11246;DHT22;59870;50.106;8.580;2023-07-13T15:00:25;31.40;33.40
11246;DHT22;59870;50.106;8.580;2023-07-13T15:02:55;31.20;32.90
11246;DHT22;59870;50.106;8.580;2023-07-13T15:05:26;31.40;33.50
11246;DHT22;59870;50.106;8.580;2023-07-13T15:07:56;31.50;34.00
11246;DHT22;59870;50.106;8.580;2023-07-13T15:10:30;31.60;33.40
11246;DHT22;59870;50.106;8.580;2023-07-13T15:13:00;31.50;33.70
11246;DHT22;59870;50.106;8.580;2023-07-13T15:15:32;31.60;32.60
11246;DHT22;59870;50.106;8.580;2023-07-13T15:18:01;31.40;32.30
11246;DHT22;59870;50.106;8.580;2023-07-13T15:20:33;31.40;33.00
11246;DHT22;59870;50.106;8.580;2023-07-13T15:23:02;31.50;33.00
11246;DHT22;59870;50.106;8.580;2023-07-13T15:25:32;31.60;32.40
11246;DHT22;59870;50.106;8.580;2023-07-13T15:28:01;31.30;32.40
11246;DHT22;59870;50.106;8.580;2023-07-13T15:30:31;31.20;32.20
11246;DHT22;59870;50.106;8.580;2023-07-13T15:33:08;31.30;33.10
11246;DHT22;59870;50.106;8.580;2023-07-13T15:35:37;31.30;33.60
11246;DHT22;59870;50.106;8.580;2023-07-13T15:38:13;31.20;32.60
11246;DHT22;59870;50.106;8.580;2023-07-13T15:40:41;31.20;32.60
11246;DHT22;59870;50.106;8.580;2023-07-13T15:43:14;31.30;32.40
11246;DHT22;59870;50.106;8.580;2023-07-13T15:45:42;31.40;32.50
11246;DHT22;59870;50.106;8.580;2023-07-13T15:48:14;31.20;32.40
11246;DHT22;59870;50.106;8.580;2023-07-13T15:50:50;31.30;32.50
11246;DHT22;59870;50.106;8.580;2023-07-13T15:53:20;31.10;32.50
11246;DHT22;59870;50.106;8.580;2023-07-13T15:55:50;31.40;32.50
11246;DHT22;59870;50.106;8.580;2023-07-13T15:58:19;31.10;32.70
11246;DHT22;59870;50.106;8.580;2023-07-13T16:00:48;31.10;32.30
11246;DHT22;59870;50.106;8.580;2023-07-13T16:03:20;31.30;32.50
11246;DHT22;59870;50.106;8.580;2023-07-13T16:05:49;31.00;32.50
11246;DHT22;59870;50.106;8.580;2023-07-13T16:08:24;31.00;32.20
11246;DHT22;59870;50.106;8.580;2023-07-13T16:10:53;31.00;32.60
11246;DHT22;59870;50.106;8.580;2023-07-13T16:13:21;30.90;32.30
11246;DHT22;59870;50.106;8.580;2023-07-13T16:15:49;31.00;32.50
11246;DHT22;59870;50.106;8.580;2023-07-13T16:18:16;31.00;33.40
11246;DHT22;59870;50.106;8.580;2023-07-13T16:20:44;31.00;32.70
11246;DHT22;59870;50.106;8.580;2023-07-13T16:23:13;31.00;32.60
11246;DHT22;59870;50.106;8.580;2023-07-13T16:25:42;31.30;32.90
11246;DHT22;59870;50.106;8.580;2023-07-13T16:28:12;30.90;32.40
11246;DHT22;59870;50.106;8.580;2023-07-13T16:30:40;30.90;31.90